EDT,Max TemperatureF,Mean TemperatureF,Min TemperatureF,Max Dew PointF,MeanDew PointF,Min DewpointF,Max Humidity, Mean Humidity, Min Humidity, Max Sea Level PressureIn, Mean Sea Level PressureIn, Min Sea Level PressureIn, Max VisibilityMiles, Mean VisibilityMiles, Min VisibilityMiles, Max Wind SpeedMPH, Mean Wind SpeedMPH, Max Gust SpeedMPH,PrecipitationIn, CloudCover, Events, WindDirDegrees
2013-3-1,46,36,26,28,26,24,92,63,44,29.94,29.91,29.88,10,10,10,7,2,,0.00,5,,345
2013-3-2,44,38,32,36,32,21,100,79,53,29.95,29.89,29.83,10,7,1,8,3,20,0.09,7,Rain-Snow,60
2013-3-3,46,35,24,21,17,14,77,51,28,30.02,29.96,29.90,10,10,10,8,5,,0.00,0,,22
2013-3-4,55,38,21,24,17,11,85,46,17,30.15,30.08,30.02,10,10,10,6,1,,0.00,0,,220
2013-3-5,54,45,36,47,40,26,100,80,58,30.06,29.81,29.62,10,7,1,14,3,26,0.52,7,Rain,17
2013-3-6,48,42,34,43,28,20,100,61,36,30.13,29.83,29.62,10,9,4,13,5,31,0.01,3,,295
2013-3-7,55,42,28,27,25,23,85,56,31,30.27,30.20,30.14,10,10,10,10,3,,0.00,0,,351
2013-3-8,57,42,27,25,22,19,85,48,23,30.34,30.28,30.22,10,10,10,15,6,22,0.00,0,,28
2013-3-9,63,46,30,35,28,25,79,48,26,30.36,30.29,30.24,10,10,10,9,4,,0.00,0,,44
2013-3-10,66,52,39,36,34,32,76,49,29,30.30,30.23,30.17,10,10,10,8,3,16,0.00,0,,144
2013-3-11,69,56,43,56,42,25,96,58,42,30.19,30.02,29.86,10,10,7,15,6,26,0.10,5,Rain,162
2013-3-12,70,60,46,59,50,22,100,75,23,29.99,29.83,29.75,10,9,3,12,7,23,0.57,5,Rain,194
2013-3-13,57,42,30,31,24,16,92,50,29,30.16,30.07,29.99,10,10,10,16,4,25,0.00,1,,311
2013-3-14,54,42,30,24,15,10,53,37,17,30.30,30.22,30.16,10,10,7,10,6,21,0.00,0,,333
2013-3-15,68,48,28,39,28,16,78,47,28,30.22,30.07,29.91,10,10,10,9,4,20,0.00,0,,206
2013-3-16,79,66,55,44,42,39,62,42,29,29.90,29.83,29.73,10,10,10,14,8,29,0.00,0,,212
2013-3-17,77,62,48,52,44,40,74,56,35,30.09,29.93,29.86,10,10,9,16,5,24,0.00,2,,68
2013-3-18,46,42,39,43,40,39,100,92,74,30.13,30.03,29.88,10,5,1,15,9,23,0.41,8,Rain-Thunderstorm,49
2013-3-19,66,52,39,46,34,11,100,70,16,30.04,29.92,29.84,10,5,0,13,4,25,0.00,3,Fog,304
2013-3-20,57,50,44,24,13,6,39,24,17,30.12,29.98,29.80,10,10,10,9,6,17,0.00,4,,36
2013-3-21,46,38,30,22,11,7,47,33,23,29.98,29.87,29.81,10,10,10,9,6,21,0.00,0,,353
2013-3-22,53,38,24,25,18,13,77,46,24,30.10,30.03,29.99,10,10,10,9,3,,0.00,3,,186
2013-3-23,53,46,39,41,36,26,93,75,49,30.06,29.99,29.92,10,9,5,9,2,,0.02,6,Rain,111
2013-3-24,44,42,39,43,40,36,100,93,86,29.91,29.69,29.56,10,5,1,18,8,25,0.83,8,Rain,39
2013-3-25,48,42,37,39,30,18,100,72,33,29.91,29.66,29.55,10,8,2,10,3,24,0.03,7,Rain,277
2013-3-26,50,38,27,26,23,22,89,56,37,30.19,30.02,29.92,10,10,10,9,3,,0.00,4,,255
2013-3-27,54,44,34,22,21,18,61,45,26,30.27,30.22,30.18,10,10,10,9,5,23,0.00,0,,353
2013-3-28,59,42,26,29,21,15,88,47,19,30.32,30.27,30.19,10,10,10,10,4,16,0.00,0,,10
2013-3-29,63,45,28,41,26,21,82,48,21,30.36,30.28,30.19,10,10,10,7,2,,0.00,2,Rain,245
2013-3-30,66,54,45,47,43,39,100,70,41,30.22,30.15,30.05,10,9,3,7,2,,0.22,4,Rain,28
2013-3-31,70,60,51,55,52,45,100,85,51,30.04,29.92,29.81,10,6,2,12,3,22,0.30,7,Rain,209